Svanen — LKXK — position and weather

sailwx.info

Track history (hours):
 
Tides and Currents Weather Stations Pressure Air Temp Water Temp Dewpoint Dewpoint Depression Visibility Wind Speed Wind Dir Waves Ship Positions

Svanen (Norway)

Ship's website: http://www.svanen.no/english/english.php1

Last reported at 2015-Jul-30 14:07 UTC. Time now 2015-Aug-01 07:51 UTC.
Position N 59°37' E 010°38'.

Length 27 m; draft 2.8 m.

Type: Sailing vessel. MMSI: 259173000.

Date/timePositionNaut miles runAvg speedWind from/ knotsBaromVisibWave heightAir tempDewpointWater temp
2015-Jul-30 14:07N 59°37' E 010°38'4 6.6
2015-Jul-30 13:34N 59°33' E 010°38'6 5.8
2015-Jul-30 12:33N 59°29' E 010°31'1 0.9
2015-Jul-30 11:34N 59°28' E 010°30'3 2.6
2015-Jul-30 10:32N 59°26' E 010°29'0 0.0
2015-Jul-30 09:31N 59°26' E 010°29'0 0.0
2015-Jul-30 08:32N 59°26' E 010°29'0 0.0
2015-Jul-30 07:32N 59°26' E 010°29'0 0.0
2015-Jul-30 06:31N 59°26' E 010°29'0 0.0
2015-Jul-30 05:32N 59°26' E 010°29'0 0.0
2015-Jul-30 04:32N 59°26' E 010°29'0 0.0
2015-Jul-30 03:32N 59°26' E 010°29'0 0.0
2015-Jul-30 02:32N 59°26' E 010°29'0 0.0
2015-Jul-30 01:32N 59°26' E 010°29'0 0.0
2015-Jul-30 00:31N 59°26' E 010°29'0 0.0
2015-Jul-29 23:32N 59°26' E 010°29'0 0.0
2015-Jul-29 22:32N 59°26' E 010°29'0 0.0
2015-Jul-29 21:32N 59°26' E 010°29'0 0.0
2015-Jul-29 20:32N 59°26' E 010°29'0 0.0
2015-Jul-29 19:31N 59°26' E 010°29'0 0.0
2015-Jul-29 18:32N 59°26' E 010°29'0 0.0
2015-Jul-29 17:32N 59°26' E 010°29'0 0.0
2015-Jul-29 16:31N 59°26' E 010°29'0 0.0
2015-Jul-29 15:31N 59°26' E 010°29'0 0.0
2015-Jul-29 14:33N 59°26' E 010°29'2 1.8
2015-Jul-29 13:33N 59°24' E 010°32'6 5.6
2015-Jul-29 12:33N 59°19' E 010°34'5 5.3
2015-Jul-29 11:33N 59°14' E 010°36'5 4.5
2015-Jul-29 10:33N 59°09' E 010°34'5 5.1
2015-Jul-29 09:33N 59°10' E 010°24'0 0.5
2015-Jul-29 08:33N 59°10' E 010°23'0 0.0
2015-Jul-29 07:30N 59°10' E 010°23'0 0.0
2015-Jul-29 06:30N 59°10' E 010°23'0 0.0
2015-Jul-29 05:28N 59°10' E 010°23'0 0.0
2015-Jul-29 04:33N 59°10' E 010°23'0 0.0
2015-Jul-29 03:28N 59°10' E 010°23'0 0.0
2015-Jul-29 02:31N 59°10' E 010°23'0 0.0
2015-Jul-29 01:30N 59°10' E 010°23'0 0.0
2015-Jul-29 00:30N 59°10' E 010°23'0 0.0
2015-Jul-28 23:31N 59°10' E 010°23'0 0.0
2015-Jul-28 22:30N 59°10' E 010°23'0 0.0
2015-Jul-28 21:31N 59°10' E 010°23'0 0.0
2015-Jul-28 20:33N 59°10' E 010°23'0 0.0
2015-Jul-28 19:33N 59°10' E 010°23'0 0.0
2015-Jul-28 18:33N 59°10' E 010°23'0 0.0
2015-Jul-28 17:31N 59°10' E 010°23'0 0.0
2015-Jul-28 16:31N 59°10' E 010°23'0 0.2
2015-Jul-28 15:33N 59°10' E 010°24'4 4.2
2015-Jul-28 14:33N 59°13' E 010°30'7 6.8
2015-Jul-28 13:33N 59°20' E 010°34'6 5.7
2015-Jul-28 12:33N 59°25' E 010°33'4 3.5
2015-Jul-28 11:33N 59°29' E 010°34'3 3.3
2015-Jul-28 10:33N 59°32' E 010°35'  
Track history (hours):
 
Tides and Currents Weather Stations Pressure Air Temp Water Temp Dewpoint Dewpoint Depression Visibility Wind Speed Wind Dir Waves Ship Positions

Svanen (Norway)

Ship's website: http://www.svanen.no/english/english.php1

Last reported at 2015-Jul-30 14:07 UTC. Time now 2015-Aug-01 07:51 UTC.
Position N 59°37' E 010°38'.

Length 27 m; draft 2.8 m.

Type: Sailing vessel. MMSI: 259173000.

Date/timePositionNaut miles runAvg speedWind from/ knotsBaromVisibWave heightAir tempDewpointWater temp
2015-Jul-30 14:07N 59°37' E 010°38'4 6.6
2015-Jul-30 13:34N 59°33' E 010°38'6 5.8
2015-Jul-30 12:33N 59°29' E 010°31'1 0.9
2015-Jul-30 11:34N 59°28' E 010°30'3 2.6
2015-Jul-30 10:32N 59°26' E 010°29'0 0.0
2015-Jul-30 09:31N 59°26' E 010°29'0 0.0
2015-Jul-30 08:32N 59°26' E 010°29'0 0.0
2015-Jul-30 07:32N 59°26' E 010°29'0 0.0
2015-Jul-30 06:31N 59°26' E 010°29'0 0.0
2015-Jul-30 05:32N 59°26' E 010°29'0 0.0
2015-Jul-30 04:32N 59°26' E 010°29'0 0.0
2015-Jul-30 03:32N 59°26' E 010°29'0 0.0
2015-Jul-30 02:32N 59°26' E 010°29'0 0.0
2015-Jul-30 01:32N 59°26' E 010°29'0 0.0
2015-Jul-30 00:31N 59°26' E 010°29'0 0.0
2015-Jul-29 23:32N 59°26' E 010°29'0 0.0
2015-Jul-29 22:32N 59°26' E 010°29'0 0.0
2015-Jul-29 21:32N 59°26' E 010°29'0 0.0
2015-Jul-29 20:32N 59°26' E 010°29'0 0.0
2015-Jul-29 19:31N 59°26' E 010°29'0 0.0
2015-Jul-29 18:32N 59°26' E 010°29'0 0.0
2015-Jul-29 17:32N 59°26' E 010°29'0 0.0
2015-Jul-29 16:31N 59°26' E 010°29'0 0.0
2015-Jul-29 15:31N 59°26' E 010°29'0 0.0
2015-Jul-29 14:33N 59°26' E 010°29'2 1.8
2015-Jul-29 13:33N 59°24' E 010°32'6 5.6
2015-Jul-29 12:33N 59°19' E 010°34'5 5.3
2015-Jul-29 11:33N 59°14' E 010°36'5 4.5
2015-Jul-29 10:33N 59°09' E 010°34'5 5.1
2015-Jul-29 09:33N 59°10' E 010°24'0 0.5
2015-Jul-29 08:33N 59°10' E 010°23'0 0.0
2015-Jul-29 07:30N 59°10' E 010°23'0 0.0
2015-Jul-29 06:30N 59°10' E 010°23'0 0.0
2015-Jul-29 05:28N 59°10' E 010°23'0 0.0
2015-Jul-29 04:33N 59°10' E 010°23'0 0.0
2015-Jul-29 03:28N 59°10' E 010°23'0 0.0
2015-Jul-29 02:31N 59°10' E 010°23'0 0.0
2015-Jul-29 01:30N 59°10' E 010°23'0 0.0
2015-Jul-29 00:30N 59°10' E 010°23'0 0.0
2015-Jul-28 23:31N 59°10' E 010°23'0 0.0
2015-Jul-28 22:30N 59°10' E 010°23'0 0.0
2015-Jul-28 21:31N 59°10' E 010°23'0 0.0
2015-Jul-28 20:33N 59°10' E 010°23'0 0.0
2015-Jul-28 19:33N 59°10' E 010°23'0 0.0
2015-Jul-28 18:33N 59°10' E 010°23'0 0.0
2015-Jul-28 17:31N 59°10' E 010°23'0 0.0
2015-Jul-28 16:31N 59°10' E 010°23'0 0.2
2015-Jul-28 15:33N 59°10' E 010°24'4 4.2
2015-Jul-28 14:33N 59°13' E 010°30'7 6.8
2015-Jul-28 13:33N 59°20' E 010°34'6 5.7
2015-Jul-28 12:33N 59°25' E 010°33'4 3.5
2015-Jul-28 11:33N 59°29' E 010°34'3 3.3
2015-Jul-28 10:33N 59°32' E 010°35'  

Dump ship's entire track history